createdAt,value
2022-12-04T00:01:18.620Z,64.74
2022-12-04T00:03:46.558Z,63.92
2022-12-04T00:06:17.447Z,64.33
2022-12-04T00:08:46.410Z,64.56
2022-12-04T00:11:17.650Z,64.16
2022-12-04T00:13:45.837Z,64.90
2022-12-04T00:16:18.939Z,64.28
2022-12-04T00:18:47.326Z,64.41
2022-12-04T00:21:16.443Z,64.49
2022-12-04T00:23:44.669Z,64.37
2022-12-04T00:26:15.420Z,64.18
2022-12-04T00:28:43.519Z,63.69
2022-12-04T00:31:17.330Z,64.54
2022-12-04T00:33:45.045Z,63.86
2022-12-04T00:36:15.912Z,64.12
2022-12-04T00:38:44.781Z,63.86
2022-12-04T00:41:15.739Z,64.18
2022-12-04T00:43:43.612Z,64.59
2022-12-04T00:46:11.356Z,64.22
2022-12-04T00:48:39.349Z,64.55
2022-12-04T00:51:10.225Z,63.76
2022-12-04T00:53:38.234Z,64.62
2022-12-04T00:56:08.723Z,64.90
2022-12-04T00:58:36.597Z,63.83
2022-12-04T01:01:07.560Z,64.02
2022-12-04T01:03:35.748Z,63.50
2022-12-04T01:06:04.895Z,63.52
2022-12-04T01:08:33.149Z,64.32
2022-12-04T01:11:00.583Z,63.99
2022-12-04T01:13:28.119Z,63.68
2022-12-04T01:15:55.682Z,63.25
2022-12-04T01:18:23.239Z,63.27
2022-12-04T01:20:51.958Z,63.52
2022-12-04T01:23:20.129Z,64.12
2022-12-04T01:26:05.828Z,63.66
2022-12-04T01:28:33.501Z,63.12
2022-12-04T01:31:08.656Z,63.77
2022-12-04T01:33:37.736Z,63.38
2022-12-04T01:36:09.071Z,63.78
2022-12-04T01:38:37.164Z,64.35
2022-12-04T01:41:05.750Z,63.28
2022-12-04T01:43:35.482Z,63.79
2022-12-04T01:46:04.263Z,64.22
2022-12-04T01:48:36.196Z,63.87
2022-12-04T01:51:20.682Z,63.70
2022-12-04T01:53:56.235Z,64.42
2022-12-04T01:56:29.578Z,64.54
2022-12-04T01:59:00.827Z,64.08
2022-12-04T02:01:36.441Z,64.34
2022-12-04T02:04:04.240Z,64.53
2022-12-04T02:06:31.739Z,64.37
2022-12-04T02:08:59.756Z,64.08
2022-12-04T02:11:39.276Z,63.23
2022-12-04T02:14:21.584Z,63.59
2022-12-04T02:17:01.059Z,63.22
2022-12-04T02:19:43.946Z,63.86
2022-12-04T02:22:22.687Z,63.78
2022-12-04T02:25:11.896Z,63.98
2022-12-04T02:27:39.889Z,64.12
2022-12-04T02:30:11.692Z,64.35
2022-12-04T02:33:02.778Z,64.01
2022-12-04T02:35:36.736Z,64.16
2022-12-04T02:38:12.321Z,63.76
2022-12-04T02:40:53.637Z,64.02
2022-12-04T02:43:29.393Z,64.00
2022-12-04T02:46:03.032Z,63.66
2022-12-04T02:48:35.664Z,63.49
2022-12-04T02:51:06.952Z,63.42
2022-12-04T02:53:40.598Z,63.51
2022-12-04T02:56:29.030Z,63.38
2022-12-04T02:59:00.906Z,63.56
2022-12-04T03:01:34.423Z,63.49
2022-12-04T03:04:07.746Z,63.14
2022-12-04T03:06:39.501Z,63.48
2022-12-04T03:09:30.955Z,63.31
2022-12-04T03:12:06.565Z,63.30
2022-12-04T03:14:42.544Z,63.68
2022-12-04T03:17:20.532Z,63.69
2022-12-04T03:19:57.246Z,63.03
2022-12-04T03:22:26.518Z,62.85
2022-12-04T03:24:56.938Z,63.29
2022-12-04T03:27:48.699Z,63.27
2022-12-04T03:30:19.389Z,63.35
2022-12-04T03:32:52.192Z,63.26
2022-12-04T03:35:29.615Z,63.37
2022-12-04T03:38:02.663Z,62.88
2022-12-04T03:40:42.048Z,62.87
2022-12-04T03:44:01.295Z,62.42
2022-12-04T03:46:41.635Z,62.40
2022-12-04T03:49:17.472Z,62.90
2022-12-04T03:51:54.340Z,63.24
2022-12-04T03:54:29.026Z,62.85
2022-12-04T03:57:03.447Z,62.66
2022-12-04T03:59:38.216Z,62.54
2022-12-04T04:02:10.463Z,61.99
2022-12-04T04:04:41.859Z,62.43
2022-12-04T04:07:17.645Z,62.45
2022-12-04T04:09:48.035Z,62.16
2022-12-04T04:12:20.716Z,62.50
2022-12-04T04:15:17.820Z,62.44
2022-12-04T04:18:07.360Z,61.48
2022-12-04T04:21:01.587Z,62.18
2022-12-04T04:23:57.102Z,62.18
2022-12-04T04:26:26.667Z,62.52
2022-12-04T04:28:54.095Z,62.20
2022-12-04T04:31:41.967Z,61.74
2022-12-04T04:34:21.742Z,62.10
2022-12-04T04:36:55.745Z,62.01
2022-12-04T04:39:29.011Z,62.06
2022-12-04T04:42:29.193Z,61.69
2022-12-04T04:45:09.085Z,61.81
2022-12-04T04:47:55.238Z,61.62
2022-12-04T04:50:23.693Z,61.70
2022-12-04T04:52:56.034Z,61.53
2022-12-04T04:55:24.129Z,61.40
2022-12-04T04:57:51.686Z,61.85
2022-12-04T05:00:22.511Z,61.85
2022-12-04T05:02:50.526Z,61.80
2022-12-04T05:05:18.308Z,61.78
2022-12-04T05:07:46.176Z,61.34
2022-12-04T05:10:14.130Z,61.80
2022-12-04T05:12:43.851Z,60.75
2022-12-04T05:15:11.674Z,61.36
2022-12-04T05:17:39.319Z,61.32
2022-12-04T05:20:07.905Z,61.67
2022-12-04T05:22:37.037Z,61.50
2022-12-04T05:25:05.662Z,61.33
2022-12-04T05:27:33.521Z,61.17
2022-12-04T05:30:01.116Z,61.49
2022-12-04T05:32:30.815Z,61.28
2022-12-04T05:34:58.507Z,61.11
2022-12-04T05:37:26.792Z,61.58
2022-12-04T05:39:54.766Z,61.15
2022-12-04T05:42:22.879Z,61.52
2022-12-04T05:44:50.544Z,60.76
2022-12-04T05:47:18.181Z,61.21
2022-12-04T05:49:45.762Z,60.59
2022-12-04T05:52:13.368Z,60.17
2022-12-04T05:54:41.022Z,60.30
2022-12-04T05:57:08.623Z,60.91
2022-12-04T05:59:36.623Z,59.84
2022-12-04T06:02:04.273Z,59.87
2022-12-04T06:04:31.995Z,60.06
2022-12-04T06:06:59.449Z,60.42
2022-12-04T06:09:27.106Z,59.32
2022-12-04T06:11:57.934Z,60.41
2022-12-04T06:14:25.606Z,60.10
2022-12-04T06:16:53.487Z,59.47
2022-12-04T06:19:22.499Z,59.86
2022-12-04T06:21:52.767Z,59.95
2022-12-04T06:24:24.837Z,59.58
2022-12-04T06:27:26.160Z,59.46
2022-12-04T06:29:44.436Z,58.07
2022-12-04T06:32:15.209Z,58.80
2022-12-04T06:34:51.558Z,59.12
2022-12-04T06:37:19.915Z,59.04
2022-12-04T06:39:47.638Z,58.50
2022-12-04T06:42:16.066Z,58.63
2022-12-04T06:44:43.626Z,58.58
2022-12-04T06:47:11.135Z,59.01
2022-12-04T06:49:38.862Z,59.05
2022-12-04T06:52:06.399Z,59.45
2022-12-04T06:54:33.837Z,59.17
2022-12-04T06:57:01.407Z,59.53
2022-12-04T06:59:28.884Z,59.16
2022-12-04T07:01:56.493Z,58.59
2022-12-04T07:04:24.881Z,58.40
2022-12-04T07:06:52.705Z,58.37
2022-12-04T07:09:20.451Z,58.53
2022-12-04T07:11:48.006Z,58.64
2022-12-04T07:14:15.752Z,58.85
2022-12-04T07:16:43.527Z,57.71
2022-12-04T07:19:13.837Z,57.92
2022-12-04T07:21:42.159Z,58.09
2022-12-04T07:24:15.309Z,57.58
2022-12-04T07:26:43.221Z,57.60
2022-12-04T07:29:11.034Z,57.35
2022-12-04T07:31:38.884Z,56.47
2022-12-04T07:34:07.502Z,55.79
2022-12-04T07:36:35.113Z,55.84
2022-12-04T07:39:02.794Z,55.39
2022-12-04T07:41:30.556Z,53.91
2022-12-04T07:43:59.427Z,54.75
2022-12-04T07:46:28.254Z,54.36
2022-12-04T07:48:57.274Z,53.37
2022-12-04T07:51:29.483Z,52.30
2022-12-04T07:54:03.732Z,52.52
2022-12-04T07:56:33.547Z,51.38
2022-12-04T07:59:01.722Z,51.50
2022-12-04T08:01:29.397Z,51.84
2022-12-04T08:03:58.732Z,51.54
2022-12-04T08:06:28.484Z,51.14
2022-12-04T08:08:57.542Z,51.05
2022-12-04T08:11:27.548Z,50.74
2022-12-04T08:13:57.235Z,50.56
2022-12-04T08:16:26.016Z,50.76
2022-12-04T08:18:54.427Z,49.94
2022-12-04T08:21:24.484Z,49.73
2022-12-04T08:23:54.060Z,49.40
2022-12-04T08:26:24.642Z,49.18
2022-12-04T08:28:57.268Z,48.90
2022-12-04T08:31:27.418Z,48.50
2022-12-04T08:33:58.345Z,48.37
2022-12-04T08:36:26.509Z,48.94
2022-12-04T08:38:54.070Z,49.10
2022-12-04T08:41:24.307Z,49.88
2022-12-04T08:43:56.506Z,49.86
2022-12-04T08:46:26.025Z,50.15
2022-12-04T08:48:54.729Z,49.83
2022-12-04T08:51:26.690Z,49.80
2022-12-04T08:54:07.015Z,49.05
2022-12-04T08:56:36.671Z,50.34
2022-12-04T08:59:12.417Z,50.55
2022-12-04T09:01:41.527Z,50.22
2022-12-04T09:04:09.954Z,50.12
2022-12-04T09:06:37.435Z,50.88
2022-12-04T09:09:05.382Z,51.10
2022-12-04T09:11:33.363Z,50.69
2022-12-04T09:14:02.813Z,51.57
2022-12-04T09:16:31.097Z,50.63
2022-12-04T09:18:59.445Z,50.63
2022-12-04T09:21:26.932Z,51.58
2022-12-04T09:23:54.665Z,50.88
2022-12-04T09:26:29.311Z,50.91
2022-12-04T09:29:00.433Z,50.57
2022-12-04T09:31:28.532Z,51.36
2022-12-04T09:34:01.386Z,50.80
2022-12-04T09:36:29.704Z,51.43
2022-12-04T09:38:58.125Z,51.11
2022-12-04T09:41:58.954Z,50.51
2022-12-04T09:44:53.797Z,50.74
2022-12-04T09:47:31.620Z,50.28
2022-12-04T09:50:13.054Z,50.03
2022-12-04T09:53:03.791Z,50.11
2022-12-04T09:56:26.957Z,49.24
2022-12-04T09:59:14.507Z,49.39
2022-12-04T10:01:49.446Z,49.30
2022-12-04T10:04:19.205Z,50.02
2022-12-04T10:07:04.970Z,49.03
2022-12-04T10:09:41.229Z,49.72
2022-12-04T10:12:14.684Z,49.67
2022-12-04T10:14:46.148Z,48.75
2022-12-04T10:17:13.774Z,48.51
2022-12-04T10:19:50.197Z,48.51
2022-12-04T10:22:33.463Z,48.41
2022-12-04T10:25:11.987Z,48.24
2022-12-04T10:27:40.640Z,48.31
2022-12-04T10:30:19.389Z,48.19
2022-12-04T10:32:48.355Z,48.23
2022-12-04T10:35:27.149Z,48.26
2022-12-04T10:37:58.836Z,47.90
2022-12-04T10:40:33.291Z,48.38
2022-12-04T10:43:26.199Z,47.73
2022-12-04T10:45:53.853Z,48.64
2022-12-04T10:48:42.066Z,47.23
2022-12-04T10:51:35.717Z,47.66
2022-12-04T10:54:45.039Z,46.97
2022-12-04T10:57:14.034Z,47.23
2022-12-04T10:59:55.700Z,47.49
2022-12-04T11:02:27.635Z,47.73
2022-12-04T11:05:01.052Z,48.49
2022-12-04T11:07:32.393Z,48.15
2022-12-04T11:10:05.625Z,48.70
2022-12-04T11:12:33.806Z,48.22
2022-12-04T11:15:02.383Z,48.51
2022-12-04T11:17:31.864Z,48.29
2022-12-04T11:20:02.542Z,48.49
2022-12-04T11:22:31.896Z,48.68
2022-12-04T11:25:00.200Z,48.38
2022-12-04T11:27:34.327Z,48.54
2022-12-04T11:30:07.846Z,48.75
2022-12-04T11:32:36.088Z,49.06
2022-12-04T11:35:26.949Z,49.08
2022-12-04T11:38:03.208Z,48.83
2022-12-04T11:40:31.124Z,49.27
2022-12-04T11:43:19.685Z,48.72
2022-12-04T11:46:02.838Z,48.96
2022-12-04T11:48:40.743Z,49.29
2022-12-04T11:51:45.758Z,49.62
2022-12-04T11:54:34.823Z,49.10
2022-12-04T11:57:15.110Z,49.73
2022-12-04T12:00:13.016Z,49.88
2022-12-04T12:03:02.018Z,50.12
2022-12-04T12:05:48.404Z,50.48
2022-12-04T12:08:33.795Z,50.73
2022-12-04T12:11:10.683Z,50.84
2022-12-04T12:14:28.064Z,51.59
2022-12-04T12:17:28.505Z,51.52
2022-12-04T12:20:18.940Z,51.81
2022-12-04T12:22:52.466Z,51.96
2022-12-04T12:25:51.767Z,52.24
2022-12-04T12:28:49.585Z,52.93
2022-12-04T12:31:50.919Z,52.57
2022-12-04T12:34:18.342Z,52.29
2022-12-04T12:36:50.657Z,52.49
2022-12-04T12:39:30.599Z,52.62
2022-12-04T12:42:01.291Z,53.44
2022-12-04T12:44:34.711Z,52.94
2022-12-04T12:47:09.968Z,53.30
2022-12-04T12:49:50.110Z,53.30
2022-12-04T12:52:30.285Z,53.87
2022-12-04T12:55:33.590Z,54.08
2022-12-04T12:58:10.990Z,54.29
2022-12-04T13:00:45.920Z,53.97
2022-12-04T13:03:33.717Z,54.90
2022-12-04T13:06:07.223Z,54.46
2022-12-04T13:08:52.881Z,54.29
2022-12-04T13:11:24.314Z,54.60
2022-12-04T13:14:03.375Z,54.75
2022-12-04T13:17:00.021Z,54.52
2022-12-04T13:19:43.525Z,55.04
2022-12-04T13:22:28.976Z,55.28
2022-12-04T13:25:02.487Z,54.71
2022-12-04T13:28:07.355Z,55.84
2022-12-04T13:30:43.756Z,55.46
2022-12-04T13:33:41.791Z,55.62
2022-12-04T13:36:09.269Z,55.40
2022-12-04T13:39:01.559Z,55.53
2022-12-04T13:41:34.031Z,56.18
2022-12-04T13:44:06.937Z,55.88
2022-12-04T13:46:37.504Z,56.26
2022-12-04T13:49:27.119Z,57.12
2022-12-04T13:51:56.403Z,56.35
2022-12-04T13:54:31.536Z,56.14
2022-12-04T13:57:21.274Z,57.37
2022-12-04T13:59:49.642Z,56.59
2022-12-04T14:02:35.688Z,57.33
2022-12-04T14:05:10.149Z,57.54
2022-12-04T14:07:40.426Z,57.45
2022-12-04T14:10:31.202Z,57.75
2022-12-04T14:13:23.748Z,57.56
2022-12-04T14:16:04.904Z,57.66
2022-12-04T14:18:32.610Z,57.65
2022-12-04T14:21:04.922Z,57.06
2022-12-04T14:23:41.327Z,57.96
2022-12-04T14:29:47.615Z,57.42
2022-12-04T14:32:35.413Z,57.84
2022-12-04T14:35:03.805Z,57.25
2022-12-04T14:37:36.464Z,57.57
2022-12-04T14:40:07.706Z,57.72
2022-12-04T14:42:39.599Z,58.25
2022-12-04T14:45:26.436Z,57.59
2022-12-04T14:48:08.984Z,57.30
2022-12-04T14:51:04.615Z,57.37
2022-12-04T14:53:48.679Z,57.79
2022-12-04T14:56:35.713Z,57.30
2022-12-04T14:59:16.324Z,56.78
2022-12-04T15:01:47.619Z,57.31
2022-12-04T15:04:33.338Z,57.18
2022-12-04T15:07:01.129Z,56.73
2022-12-04T15:09:48.238Z,56.96
2022-12-04T15:12:37.154Z,57.57
2022-12-04T15:15:27.441Z,56.72
2022-12-04T15:18:24.404Z,56.58
2022-12-04T15:20:51.918Z,56.85
2022-12-04T15:23:30.288Z,56.08
2022-12-04T15:26:03.367Z,57.02
2022-12-04T15:28:43.866Z,56.14
2022-12-04T15:31:23.643Z,55.61
2022-12-04T15:33:57.223Z,56.40
2022-12-04T15:36:48.085Z,56.65
2022-12-04T15:39:21.632Z,56.38
2022-12-04T15:41:50.190Z,56.34
2022-12-04T15:44:36.743Z,55.93
2022-12-04T15:47:20.719Z,56.24
2022-12-04T15:49:48.666Z,55.94
2022-12-04T15:52:22.204Z,56.10
2022-12-04T15:55:01.158Z,56.41
2022-12-04T15:57:42.861Z,56.46
2022-12-04T16:00:24.449Z,56.51
2022-12-04T16:02:52.407Z,56.15
2022-12-04T16:05:22.739Z,56.25
2022-12-04T16:08:02.573Z,55.92
2022-12-04T16:10:33.168Z,56.31
2022-12-04T16:13:03.784Z,56.41
2022-12-04T16:15:43.958Z,56.50
2022-12-04T16:18:14.307Z,56.43
2022-12-04T16:20:41.990Z,56.61
2022-12-04T16:23:10.033Z,56.94
2022-12-04T16:25:37.733Z,56.84
2022-12-04T16:28:06.008Z,56.83
2022-12-04T16:30:35.711Z,57.29
2022-12-04T16:33:03.628Z,57.28
2022-12-04T16:35:31.710Z,57.21
2022-12-04T16:37:59.318Z,56.96
2022-12-04T16:40:26.851Z,57.40
2022-12-04T16:42:54.488Z,56.98
2022-12-04T16:45:25.558Z,57.52
2022-12-04T16:47:53.276Z,57.27
2022-12-04T16:50:20.966Z,57.13
2022-12-04T16:52:48.424Z,57.63
2022-12-04T16:55:19.879Z,57.44
2022-12-04T16:57:47.950Z,57.37
2022-12-04T17:00:18.174Z,56.77
2022-12-04T17:02:46.420Z,56.96
2022-12-04T17:05:22.617Z,57.04
2022-12-04T17:07:50.749Z,57.04
2022-12-04T17:10:23.725Z,57.29
2022-12-04T17:12:55.399Z,57.19
2022-12-04T17:15:23.202Z,57.25
2022-12-04T17:17:51.316Z,57.93
2022-12-04T17:20:20.668Z,57.65
2022-12-04T17:22:49.399Z,57.72
2022-12-04T17:25:17.683Z,58.20
2022-12-04T17:27:45.584Z,58.46
2022-12-04T17:30:13.970Z,58.78
2022-12-04T17:32:44.944Z,58.24
2022-12-04T17:35:12.878Z,58.78
2022-12-04T17:37:41.878Z,58.48
2022-12-04T17:40:11.258Z,58.68
2022-12-04T17:42:41.116Z,58.76
2022-12-04T17:45:10.868Z,58.38
2022-12-04T17:47:38.649Z,58.49
2022-12-04T17:50:07.293Z,58.56
2022-12-04T17:52:34.812Z,58.47
2022-12-04T17:55:02.928Z,58.58
2022-12-04T17:57:31.248Z,59.31
2022-12-04T17:59:58.817Z,58.53
2022-12-04T18:02:26.509Z,59.20
2022-12-04T18:04:55.383Z,59.14
2022-12-04T18:07:23.340Z,58.82
2022-12-04T18:09:50.823Z,59.60
2022-12-04T18:12:18.531Z,59.02
2022-12-04T18:14:46.591Z,59.17
2022-12-04T18:17:14.129Z,59.28
2022-12-04T18:19:41.807Z,59.15
2022-12-04T18:22:09.408Z,58.93
2022-12-04T18:24:36.994Z,58.83
2022-12-04T18:27:05.493Z,58.64
2022-12-04T18:29:33.027Z,59.17
2022-12-04T18:32:00.591Z,58.47
2022-12-04T18:34:28.293Z,58.96
2022-12-04T18:36:55.857Z,58.62
2022-12-04T18:39:25.162Z,58.57
2022-12-04T18:41:57.481Z,58.83
2022-12-04T18:44:26.241Z,58.96
2022-12-04T18:46:53.912Z,58.62
2022-12-04T18:49:21.510Z,58.54
2022-12-04T18:51:50.273Z,58.72
2022-12-04T18:54:20.898Z,58.23
2022-12-04T18:56:49.361Z,58.68
2022-12-04T18:59:22.433Z,58.23
2022-12-04T19:01:50.657Z,58.09
2022-12-04T19:04:20.424Z,58.26
2022-12-04T19:06:55.490Z,57.76
2022-12-04T19:09:47.063Z,57.63
2022-12-04T19:12:13.770Z,57.95
2022-12-04T19:14:41.302Z,58.02
2022-12-04T19:17:09.347Z,58.52
2022-12-04T19:19:37.045Z,58.35
2022-12-04T19:22:04.660Z,58.58
2022-12-04T19:24:32.370Z,57.77
2022-12-04T19:27:02.078Z,58.19
2022-12-04T19:29:30.932Z,58.58
2022-12-04T19:31:59.716Z,58.12
2022-12-04T19:34:30.377Z,58.64
2022-12-04T19:36:58.096Z,58.27
2022-12-04T19:39:25.639Z,58.74
2022-12-04T19:41:53.784Z,57.76
2022-12-04T19:47:10.065Z,57.72
2022-12-04T19:49:37.575Z,58.84
2022-12-04T19:52:05.636Z,57.94
2022-12-04T19:54:33.341Z,58.37
2022-12-04T19:57:01.347Z,58.09
2022-12-04T19:59:36.109Z,58.31
2022-12-04T20:02:05.456Z,58.78
2022-12-04T20:04:32.910Z,58.41
2022-12-04T20:07:00.537Z,58.03
2022-12-04T20:09:28.106Z,58.93
2022-12-04T20:11:55.575Z,58.76
2022-12-04T20:14:24.432Z,58.64
2022-12-04T20:16:52.108Z,58.35
2022-12-04T20:19:20.207Z,58.79
2022-12-04T20:21:47.952Z,58.21
2022-12-04T20:24:16.745Z,58.39
2022-12-04T20:26:46.146Z,58.05
2022-12-04T20:29:15.505Z,57.63
2022-12-04T20:31:45.316Z,58.13
2022-12-04T20:34:18.008Z,57.95
2022-12-04T20:36:47.355Z,57.24
2022-12-04T20:39:16.563Z,57.99
2022-12-04T20:41:44.203Z,57.80
2022-12-04T20:44:14.862Z,57.53
2022-12-04T20:46:42.990Z,57.18
2022-12-04T20:49:21.667Z,57.35
2022-12-04T20:51:51.311Z,57.17
2022-12-04T20:54:20.511Z,57.41
2022-12-04T20:56:49.194Z,57.53
2022-12-04T20:59:19.158Z,57.95
2022-12-04T21:01:49.168Z,57.40
2022-12-04T21:04:18.096Z,56.77
2022-12-04T21:06:47.144Z,57.73
2022-12-04T21:09:23.602Z,58.16
2022-12-04T21:11:54.770Z,58.37
2022-12-04T21:14:44.941Z,57.43
2022-12-04T21:17:18.486Z,57.45
2022-12-04T21:19:47.357Z,57.88
2022-12-04T21:22:15.971Z,57.18
2022-12-04T21:24:43.605Z,57.67
2022-12-04T21:27:14.505Z,57.34
2022-12-04T21:29:46.720Z,57.48
2022-12-04T21:32:14.209Z,57.37
2022-12-04T21:34:41.743Z,57.30
2022-12-04T21:37:09.362Z,57.64
2022-12-04T21:39:37.214Z,56.75
2022-12-04T21:42:23.816Z,57.15
2022-12-04T21:44:51.726Z,57.23
2022-12-04T21:47:19.242Z,57.23
2022-12-04T21:49:47.873Z,57.51
2022-12-04T21:52:16.569Z,57.44
2022-12-04T21:54:44.330Z,57.77
2022-12-04T21:57:11.870Z,57.67
2022-12-04T21:59:39.388Z,57.44
2022-12-04T22:02:07.024Z,57.22
2022-12-04T22:04:34.556Z,57.79
2022-12-04T22:07:02.125Z,57.43
2022-12-04T22:09:29.689Z,57.65
2022-12-04T22:11:57.160Z,57.25
2022-12-04T22:14:24.691Z,58.02
2022-12-04T22:16:53.173Z,57.25
2022-12-04T22:19:20.971Z,57.21
2022-12-04T22:21:48.536Z,57.18
2022-12-04T22:24:35.987Z,57.62
2022-12-04T22:27:05.735Z,56.91
2022-12-04T22:29:49.922Z,57.56
2022-12-04T22:32:19.664Z,57.51
2022-12-04T22:34:50.029Z,57.28
2022-12-04T22:37:17.670Z,57.11
2022-12-04T22:39:45.220Z,56.88
2022-12-04T22:42:12.820Z,56.89
2022-12-04T22:44:40.415Z,56.84
2022-12-04T22:47:08.137Z,57.73
2022-12-04T22:49:35.659Z,57.41
2022-12-04T22:52:03.272Z,57.70
2022-12-04T22:54:30.731Z,57.60
2022-12-04T22:56:58.332Z,57.34
2022-12-04T22:59:25.866Z,57.11
2022-12-04T23:01:53.445Z,57.15
2022-12-04T23:04:21.005Z,57.21
2022-12-04T23:06:48.522Z,56.91
2022-12-04T23:09:17.506Z,57.03
2022-12-04T23:11:45.677Z,56.89
2022-12-04T23:14:15.522Z,57.57
2022-12-04T23:16:43.195Z,57.38
2022-12-04T23:19:13.360Z,57.65
2022-12-04T23:21:41.352Z,57.53
2022-12-04T23:24:10.053Z,57.88
2022-12-04T23:26:40.769Z,57.99
2022-12-04T23:29:29.819Z,58.05
2022-12-04T23:31:55.976Z,57.11
2022-12-04T23:34:23.522Z,57.50
2022-12-04T23:36:51.007Z,57.03
2022-12-04T23:39:18.510Z,57.65
2022-12-04T23:41:46.146Z,57.91
2022-12-04T23:44:13.657Z,57.36
2022-12-04T23:46:41.251Z,57.77
2022-12-04T23:49:08.896Z,57.73
2022-12-04T23:51:36.457Z,57.13
2022-12-04T23:54:04.056Z,57.71
2022-12-04T23:56:32.755Z,58.10
2022-12-04T23:59:00.336Z,58.10
